Impacts METAR Board INFO
IDs:

KCLE - Cleveland/Hopkins In, OH, US

Updated at: 0105 UTC 19 Nov 2017
Potential Impact None Slight Moderate High
Time18/13Z 18/14Z 18/15Z 18/16Z 18/17Z 18/18Z 18/19Z 18/20Z 18/21Z 18/22Z 18/23Z 19/00Z 19/01Z
VIS10 4 10 10 5 4 9 3 2 6 6 10 4
CIG24 17 25 26 40 85 23 22 24 65 70 25 6
CoverOVCOVCOVCOVCOVCOVCOVCOVCOVCOVCOVCOVCOVC
FltCatMVFRMVFRMVFRMVFRMVFRMVFRMVFRMVFRIFRVFRVFRMVFRIFR
WX--BR-----RA BRRA BR-RARA BR+RA BRRA BRRA BR---RA BR
WDir180180180180180180170150190170180200300
WSpd10 10 9 10 10 10 10 8 14 21 13 14 18
WGst-- -- -- -- -- -- 18 -- 22 25 22 -- 25
Raw hourly METARs
KCLE 181251Z 18010KT 10SM OVC024 08/06 A2961 RMK AO2 RAB09E27 SLP030 P0001 T00780061 $
KCLE 181351Z 18010KT 4SM BR FEW006 BKN017 OVC026 08/07 A2960 RMK AO2 RAB01E31 SLP026 P0001 T00780067 $
KCLE 181451Z 18009KT 10SM OVC025 09/08 A2954 RMK AO2 RAB20E34 SLP005 P0001 60003 T00890078 58027 $
KCLE 181551Z 18010KT 10SM FEW012 OVC026 09/08 A2952 RMK AO2 SLP999 T00940078 $
KCLE 181651Z 18010KT 5SM -RA BR SCT026 OVC040 10/08 A2948 RMK AO2 RAB16 PRESFR SLP984 P0002 T01000083 $
KCLE 181751Z 18010KT 4SM RA BR SCT070 OVC085 10/09 A2939 RMK AO2 SLP955 P0012 60017 T01000089 10100 20072 58048 $
KCLE 181851Z 17010G18KT 9SM -RA FEW010 BKN023 OVC085 11/09 A2935 RMK AO2 SLP939 P0014 T01060094 $
KCLE 181951Z 15008KT 3SM RA BR BKN022 BKN031 OVC041 11/10 A2929 RMK AO2 PRESFR SLP918 P0024 T01060100 $
KCLE 182105Z 19014G22KT 2SM +RA BR FEW010 BKN024 OVC035 12/10 A2926 RMK AO2 WSHFT 2051 P0013 T01170100 $
KCLE 182151Z 17021G25KT 6SM RA BR FEW024 BKN065 OVC080 12/10 A2920 RMK AO2 WSHFT 2051 PRESFR SLP889 P0043 T01170100 $
KCLE 182251Z 18013G22KT 6SM RA BR OVC070 12/11 A2918 RMK AO2 PK WND 16027/2158 SLP881 P0024 T01220106 $
KCLE 190002Z 20014KT 10SM BKN025 BKN060 OVC100 13/12 A2917 RMK AO2 T01330122 $
KCLE 190051Z 30018G25KT 4SM -RA BR OVC006 12/11 A2921 RMK AO2 WSHFT 0014 RAB15 SLP890 P0004 T01170111 $